Metar z pełnej godziny Komunikat METAR ze strony awiacja.imgw.pl Metar G00 EPSC METAR EPSC 261200Z 27006KT 8000 SCT005 OVC007 01/M00 Q1009 =